[Monday: every 4 Weeks | 1900lcl - 2200lcl] LHBP - EDDL City Link

Zu Eventkalender hinzugefügt: 15 Daten

Kai Schuele

1482477
RG Düsseldorf - Event
ACtC-3edaOJp6C-hlG7H64WZXQpUYgcdX3blPSyuvYg983jNuA2JHnFri-rzsyLJ_SbiCCD6I3TkfiiM835g6m2WMPXIJZHlOnMZpd_akVAMjdU1Nduvv5SEsBbHQujQORRdSh7NYBKHrcD8coCRiYN0RtSb=w1666-h937-no


Hallo liebe Freunde!

Wie sicher viele von euch wissen, findet unser wöchentliche Düsseldorf Monday von 19lcl bis 22lcl, jeden Montag, statt.
Zusätzlich zu unserem Onlinetag bieten wir euch nun eine weitere Destination an, welche unseren Düsseldorf Monday mit einem weiteren Partnerairport bereichert.

Ab sofort bieten wir euch alle vier Wochen ein Düsseldorf (EDDL) - Budapest (LHBP) Shuttle an. Zusätzlich zum regulären Onlinetag bekommt ihr also die Gelegenheit, mit voller ATC Abdeckung, Ungarn zu besuchen und dabei den Reiz gut gefüllter Vorfelder zu verspüren.

Wir freuen uns auf euren Besuch auf der Rennstrecke!


---

Hey all!

As some of you might know, our weekly Düsseldorf Monday takes place every monday from 19lcl to 22lcl.
In addition to our weekly onlineday we want to introduce you into a brand new monthly Shuttle.

Every four weeks we will connect Dusseldorf (EDDL) and Budapest (LHBP) from 18z until 21z for you. You will get the chance to fly between Dusseldorf and Budapest with full ATC coverage and busy airports from the top to the bottom.
If you are looking for a new monthly adventure, this is the shuttle to join!

We are looking forward to your takeoff/landings!

Nächster Shuttle Termin:
  • 14.12.2020 18:00z-21:00z


Nützliche Infos:

Scenery:
 
Zuletzt bearbeitet:

Kai Schuele

1482477
RG Düsseldorf - Event
banner_v2.2.1.JPG


Heute ist die Große Premiere unseres neuen Monthly Shuttles nach Budapest (LHBP)

Wir laden euch heute herzlich zum ersten Shuttle unserer neuen Serie ein und freuen uns auf eure Flüge zwischen Budapest (LHBP) und Düsseldorf (EDDL). Ab 18:00z (19:00lcl) könnt ihr unsere Onlinetage mit eurem Flug verbinden, erlebt zwei Airports mit gewohnt guter ATC vom Boden bis zur Dünnluft.

Die Kollegen aus Budapest und wir freuen uns auf zwei volle Airports und viele Starts und Landungen auf unserer Shuttlestrecke.

Wir wünschen euch viel spaß heute Abend und freuen uns euch auf der Frequenz zu hören.


Nützliche Infos:

Scenery:

TAF:
  • EDDL 160500Z 1606/1712 22015KT 9999 SCT030 TEMPO 1609/1617 24015G25KT SHRA BKN020TCU BECMG 1615/1618 21010KT TEMPO 1704/1707 RA
  • LHBP 160515Z 1606/1706 11007KT 7000 BKN030 TEMPO 1606/1614 2500 -RA BKN004 BECMG 1609/1611 VRB03KT TEMPO 1614/1616 34007KT BKN008 BECMG 1620/1622 NSC TEMPO 1700/1706 2000 BCFG BR SCT004
Route:
  • EDDL-LHBP: KUMIK L603 TESGA OSBIT UZ205 LULAR ABUDO Z205 BUDEX Z37 GIMBO MAREG L175 ANEXA
  • LHBP-EDDL: GILEP DCT ZOLKU DCT BEGLA DCT LAMSI L604 RUDNO DCT SULUS T852 TINSA T854 DOMUX
 
Zuletzt bearbeitet:

Kai Schuele

1482477
RG Düsseldorf - Event
banner_v2.2.1.JPG



Heute seit ihr wieder herzlich eingeladen zum Shuttle zwischen Budapest (LHBP) und Düsseldorf (EDDL)

Ab 18:00z (19:00lcl) öffnen wir heute wieder unsere Flughäfen für euren Flug!
Genießt die Strecke zwischen der Hauptstadt Ungarns und der Landeshauptstadt von NRW bei bestem ATC Service an unseren Airports und teilen der Strecke.

Wir freuen uns euch heute Abend auf der Welle begrüßen zu dürfen.

Nützliche Infos:

Scenery:

TAF:
  • EDDL 111100Z 1112/1218 21012KT 9999 BKN012 BECMG 1112/1115 SCT012 BKN020 BECMG 1117/1120 21015G25KT TEMPO 1121/1212 RA BKN012 PROB40 TEMPO 1200/1207 23020G30KT PROB30 TEMPO 1202/1210 4000 RADZ BKN005 BECMG 1207/1210 28009KT
  • LHBP 111115Z 1112/1212 35006KT CAVOK BECMG 1116/1118 VRB03KT TEMPO 1119/1203 -SN BKN045 BECMG 1209/1211 23006KT
Route:
  • EDDL-LHBP (Odd LVL): DODEN Y853 BOMBI ESATI BARSU ENITA PEPIK NIT M748 ARFOX
  • LHBP-EDDL (Even LVL): GILEP ZOLKU BEGLA LAMSI L604 RUDNO SULUS T852 TINSA T854 DOMUX
 

Maurice Szmudzinski

1332208
RG Düsseldorf - Event
Heute ist es mal wieder soweit!

Wir verbinden die ungarische Hauptstadt mit der Landeshauptstadt NRWs!
Ab 17z starten wir für euch die Funkgeräte und freuen uns auf euren Besuch an beiden Plätzen!

Nichts wie los und ab an die Planung. Wir freuen uns auf euch!
 

Kai Schuele

1482477
RG Düsseldorf - Event
banner_v2.2.1.JPG





Heute seit ihr wieder herzlich eingeladen zum Shuttle zwischen Budapest (LHBP) und Düsseldorf (EDDL)

Ab 17:00z (19:00lcl) öffnen wir heute wieder unsere Flughäfen für euren Flug!
Genießt die Strecke zwischen der Hauptstadt Ungarns und der Landeshauptstadt von NRW bei bestem ATC Service an unseren Airports und teilen der Strecke.

Wir freuen uns euch heute Abend auf der Welle begrüßen zu dürfen.

Nützliche Infos:

Scenery:

TAF:

  • TAF: EDDL 031100Z 0312/0418 23014KT CAVOK TEMPO 0312/0316 22015G25KT BECMG 0318/0321 16013KT BECMG 0321/0324 19015G25KT BECMG 0400/040219020G35KT PROB40 TEMPO 0402/0406 RA BECMG 0407/0409 20025G40KT PROB30 TEMPO 0410/0418 22025G50KT SHRA BKN020CB

  • LHBP 031115Z 0312/0412 30016KT CAVOK BECMG 0315/0317 27008KT BECMG 0318/0320 VRB03KT BECMG 0407/0410 19016KT
 

Kai Schuele

1482477
RG Düsseldorf - Event
banner_v2.2.1.JPG



Heute seit ihr wieder herzlich bei bestem Wetter eingeladen zum Shuttle zwischen Budapest (LHBP) und Düsseldorf (EDDL)

Ab 17:00z (19:00lcl) öffnen wir heute wieder unsere Flughäfen für euren Flug!
Genießt die Strecke zwischen der Hauptstadt Ungarns und der Landeshauptstadt von NRW bei bestem ATC Service an unseren Airports und teilen der Strecke.

Wir freuen uns euch heute Abend auf der Welle begrüßen zu dürfen.

Nützliche Infos:

Scenery:

TAF:

  • TAF: EDDL 310500Z 3106/0112 VRB03KT CAVOK BECMG 3107/3110 05007KT BECMG 3121/3124 11003KT BECMG 0107/010910008KT

  • LHBP 310515Z 3106/0106 VRB03KT CAVOK BECMG 3106/3109 01008KT TEMPO 3112/3122 35015G25KT 4000 SHRA TSRA SCT030CB BKN060 BECMG 3122/3124 35006KT CAVOK
 
Oben